Centerdale, Iowa
Current Conditions -  °F | °C
As of 7:52 AM on Tuesday 21 Oct 2014 (Local Time) from KIOW Reporting Station
Clear Clear  
Wind Chill: 39°   Ceiling: Unl
Heat Index: 39°   Visibility: 10mi
Dew Point: 39°   Wind: 0mph
Humidity: 100%   Direction: NA
Pressure: 30.17"   Gusts: NA
Location:  41.5542°N, 91.2913°W
Report Text: KIOW 211252Z AUTO 00000KT 10SM CLR 04/04 A3017 RMK AO2 SLP221 T00390039
Loading
Personal Weather Stations






























Interactive Weather Map New forecast layout! Learn more

10-Day Weather Forecast

Advertisements
Track Severe Weather on mobile